Aviation Digital Data Service (ADDS)

Output produced by METARs form (1057 UTC 01 March 2015)
found at http://aviationweather.gov/adds/metars/
 
KMPV 010521Z 0106/0206 VRB02KT P6SM SKC 
     FM011000 VRB02KT P6SM BKN150 
     FM011500 18009KT P6SM OVC060 
     FM011900 18010KT 2SM -SN BR BKN025 OVC060 
     FM012300 18007KT 1SM -SN BR SCT008 OVC015